createdAt,value
2023-01-12T00:00:55.645Z,6.21
2023-01-12T00:03:21.975Z,6.21
2023-01-12T00:05:48.320Z,6.21
2023-01-12T00:08:14.653Z,6.17
2023-01-12T00:10:40.987Z,6.10
2023-01-12T00:13:07.312Z,6.00
2023-01-12T00:15:52.562Z,6.01
2023-01-12T00:18:18.888Z,5.98
2023-01-12T00:20:45.251Z,5.90
2023-01-12T00:23:12.415Z,5.74
2023-01-12T00:25:38.726Z,5.77
2023-01-12T00:28:05.057Z,5.75
2023-01-12T00:30:31.386Z,5.67
2023-01-12T00:32:57.706Z,5.65
2023-01-12T00:35:24.031Z,5.57
2023-01-12T00:37:50.343Z,5.57
2023-01-12T00:40:16.747Z,5.38
2023-01-12T00:43:01.917Z,5.27
2023-01-12T00:45:31.036Z,5.36
2023-01-12T00:47:57.346Z,5.64
2023-01-12T00:50:23.685Z,5.66
2023-01-12T00:52:50.015Z,5.71
2023-01-12T00:55:16.411Z,5.79
2023-01-12T00:57:42.817Z,6.03
2023-01-12T01:00:09.166Z,6.16
2023-01-12T01:02:35.511Z,6.20
2023-01-12T01:05:01.900Z,6.19
2023-01-12T01:07:28.200Z,6.39
2023-01-12T01:09:56.318Z,6.44
2023-01-12T01:12:22.634Z,6.36
2023-01-12T01:14:48.984Z,6.31
2023-01-12T01:17:15.310Z,6.27
2023-01-12T01:19:43.437Z,6.47
2023-01-12T01:22:09.985Z,6.47
2023-01-12T01:24:36.287Z,6.46
2023-01-12T01:27:02.628Z,6.54
2023-01-12T01:29:28.972Z,6.48
2023-01-12T01:31:55.304Z,6.58
2023-01-12T01:34:21.703Z,6.65
2023-01-12T01:36:47.999Z,6.60
2023-01-12T01:39:14.303Z,6.59
2023-01-12T01:41:43.469Z,6.65
2023-01-12T01:44:09.935Z,6.59
2023-01-12T01:46:36.377Z,6.51
2023-01-12T01:49:02.750Z,6.54
2023-01-12T01:51:29.066Z,6.47
2023-01-12T01:53:55.373Z,6.63
2023-01-12T01:56:21.736Z,6.85
2023-01-12T01:58:48.135Z,6.73
2023-01-12T02:01:14.462Z,6.66
2023-01-12T02:03:40.840Z,6.72
2023-01-12T02:06:07.161Z,6.92
2023-01-12T02:08:33.498Z,6.86
2023-01-12T02:10:59.931Z,6.89
2023-01-12T02:13:44.968Z,6.83
2023-01-12T02:16:24.217Z,6.79
2023-01-12T02:18:50.596Z,6.99
2023-01-12T02:21:16.939Z,6.89
2023-01-12T02:23:43.289Z,6.80
2023-01-12T02:26:09.608Z,6.84
2023-01-12T02:28:35.936Z,6.78
2023-01-12T02:31:02.388Z,6.78
2023-01-12T02:33:28.750Z,6.80
2023-01-12T02:35:55.166Z,6.84
2023-01-12T02:38:21.518Z,6.81
2023-01-12T02:40:48.415Z,6.69
2023-01-12T02:43:15.089Z,6.77
2023-01-12T02:45:43.116Z,6.68
2023-01-12T02:48:09.510Z,6.63
2023-01-12T02:50:35.855Z,6.62
2023-01-12T02:53:02.369Z,6.58
2023-01-12T02:55:28.710Z,6.56
2023-01-12T02:57:55.022Z,6.55
2023-01-12T03:00:21.336Z,6.47
2023-01-12T03:02:47.749Z,6.35
2023-01-12T03:05:14.143Z,6.30
2023-01-12T03:07:40.469Z,6.33
2023-01-12T03:10:06.774Z,6.35
2023-01-12T03:12:33.086Z,6.31
2023-01-12T03:14:59.408Z,6.25
2023-01-12T03:17:25.748Z,6.22
2023-01-12T03:19:52.075Z,6.06
2023-01-12T03:22:18.394Z,6.06
2023-01-12T03:24:44.692Z,6.11
2023-01-12T03:27:11.058Z,6.12
2023-01-12T03:29:37.766Z,6.09
2023-01-12T03:32:04.112Z,6.16
2023-01-12T03:34:30.415Z,6.18
2023-01-12T03:36:56.721Z,6.24
2023-01-12T03:39:23.175Z,6.27
2023-01-12T03:41:49.504Z,6.24
2023-01-12T03:44:15.864Z,6.26
2023-01-12T03:46:42.217Z,6.26
2023-01-12T03:49:08.855Z,6.27
2023-01-12T03:51:35.184Z,6.16
2023-01-12T03:54:01.601Z,6.14
2023-01-12T03:56:27.966Z,6.10
2023-01-12T03:58:54.296Z,6.05
2023-01-12T04:01:20.733Z,6.03
2023-01-12T04:03:47.111Z,6.06
2023-01-12T04:06:13.496Z,5.98
2023-01-12T04:08:39.813Z,5.97
2023-01-12T04:11:26.123Z,5.96
2023-01-12T04:13:52.449Z,5.88
2023-01-12T04:16:18.888Z,5.98
2023-01-12T04:18:45.244Z,5.99
2023-01-12T04:21:31.520Z,5.82
2023-01-12T04:23:57.863Z,5.86
2023-01-12T04:26:24.202Z,5.92
2023-01-12T04:28:50.511Z,5.86
2023-01-12T04:31:16.847Z,5.95
2023-01-12T04:33:43.255Z,5.98
2023-01-12T04:36:11.358Z,5.97
2023-01-12T04:38:37.816Z,6.00
2023-01-12T04:41:04.128Z,5.99
2023-01-12T04:43:30.452Z,5.97
2023-01-12T04:45:56.789Z,6.03
2023-01-12T04:48:25.185Z,6.10
2023-01-12T04:50:51.693Z,6.13
2023-01-12T04:53:18.173Z,6.07
2023-01-12T04:55:44.542Z,6.05
2023-01-12T04:58:10.861Z,6.19
2023-01-12T05:00:37.266Z,6.15
2023-01-12T05:03:03.719Z,6.21
2023-01-12T05:05:30.050Z,6.20
2023-01-12T05:08:15.125Z,6.22
2023-01-12T05:10:41.472Z,6.25
2023-01-12T05:13:07.786Z,6.21
2023-01-12T05:15:34.102Z,6.16
2023-01-12T05:18:00.515Z,6.17
2023-01-12T05:20:26.866Z,6.12
2023-01-12T05:22:53.297Z,6.19
2023-01-12T05:25:19.658Z,6.16
2023-01-12T05:27:46.005Z,6.08
2023-01-12T05:30:12.420Z,6.13
2023-01-12T05:32:38.767Z,6.09
2023-01-12T05:35:05.092Z,6.04
2023-01-12T05:37:31.452Z,6.08
2023-01-12T05:39:57.782Z,6.04
2023-01-12T05:42:43.111Z,6.28
2023-01-12T05:45:09.425Z,6.29
2023-01-12T05:47:35.743Z,6.41
2023-01-12T05:50:02.084Z,6.57
2023-01-12T05:52:28.489Z,6.58
2023-01-12T05:54:54.868Z,6.52
2023-01-12T05:57:21.221Z,6.53
2023-01-12T05:59:47.528Z,6.65
2023-01-12T06:02:17.542Z,6.50
2023-01-12T06:04:43.915Z,6.51
2023-01-12T06:07:10.250Z,6.55
2023-01-12T06:09:36.592Z,6.58
2023-01-12T06:12:21.951Z,6.54
2023-01-12T06:14:48.300Z,6.44
2023-01-12T06:17:14.616Z,6.37
2023-01-12T06:19:40.935Z,6.50
2023-01-12T06:22:07.248Z,6.44
2023-01-12T06:24:33.551Z,6.25
2023-01-12T06:27:00.147Z,6.34
2023-01-12T06:29:26.486Z,6.36
2023-01-12T06:31:52.825Z,6.28
2023-01-12T06:34:19.207Z,6.23
2023-01-12T06:36:45.533Z,5.99
2023-01-12T06:39:11.854Z,6.13
2023-01-12T06:41:56.992Z,6.19
2023-01-12T06:44:23.303Z,6.12
2023-01-12T06:46:49.634Z,6.14
2023-01-12T06:49:19.888Z,6.06
2023-01-12T06:51:46.229Z,6.00
2023-01-12T06:54:12.551Z,5.85
2023-01-12T06:56:38.879Z,5.81
2023-01-12T06:59:05.217Z,5.77
2023-01-12T07:01:31.703Z,5.84
2023-01-12T07:03:58.044Z,5.85
2023-01-12T07:06:24.378Z,5.92
2023-01-12T07:08:50.713Z,5.95
2023-01-12T07:11:17.145Z,5.91
2023-01-12T07:13:43.442Z,5.94
2023-01-12T07:16:09.891Z,5.94
2023-01-12T07:18:36.350Z,6.05
2023-01-12T07:21:02.672Z,6.07
2023-01-12T07:23:29.016Z,6.08
2023-01-12T07:25:55.358Z,6.07
2023-01-12T07:28:21.687Z,6.16
2023-01-12T07:30:49.987Z,6.26
2023-01-12T07:33:18.591Z,6.30
2023-01-12T07:35:45.187Z,6.34
2023-01-12T07:38:11.506Z,6.47
2023-01-12T07:40:37.972Z,6.44
2023-01-12T07:43:04.291Z,6.43
2023-01-12T07:45:30.687Z,6.58
2023-01-12T07:47:57.102Z,6.57
2023-01-12T07:50:23.743Z,6.65
2023-01-12T07:52:50.082Z,6.74
2023-01-12T07:55:19.873Z,6.80
2023-01-12T07:57:46.243Z,6.86
2023-01-12T08:00:13.366Z,6.95
2023-01-12T08:02:39.701Z,7.11
2023-01-12T08:05:06.099Z,7.03
2023-01-12T08:07:32.754Z,7.17
2023-01-12T08:09:59.104Z,7.28
2023-01-12T08:12:25.433Z,7.41
2023-01-12T08:14:51.769Z,7.43
2023-01-12T08:17:18.099Z,7.38
2023-01-12T08:19:44.415Z,7.37
2023-01-12T08:22:11.103Z,7.41
2023-01-12T08:24:37.451Z,7.41
2023-01-12T08:27:03.759Z,7.49
2023-01-12T08:29:32.178Z,7.61
2023-01-12T08:31:58.496Z,7.82
2023-01-12T08:34:25.049Z,7.97
2023-01-12T08:36:51.411Z,8.10
2023-01-12T08:39:17.735Z,8.25
2023-01-12T08:41:45.147Z,8.36
2023-01-12T08:44:11.752Z,8.42
2023-01-12T08:46:38.239Z,8.49
2023-01-12T08:49:04.642Z,8.58
2023-01-12T08:51:31.024Z,8.62
2023-01-12T08:53:57.349Z,8.70
2023-01-12T08:56:23.691Z,8.72
2023-01-12T08:58:50.185Z,8.93
2023-01-12T09:01:17.377Z,8.89
2023-01-12T09:03:47.365Z,9.12
2023-01-12T09:06:13.781Z,9.16
2023-01-12T09:08:40.139Z,9.11
2023-01-12T09:11:06.453Z,9.17
2023-01-12T09:13:32.811Z,9.22
2023-01-12T09:16:11.630Z,9.29
2023-01-12T09:18:39.461Z,9.24
2023-01-12T09:21:05.826Z,9.33
2023-01-12T09:23:32.183Z,9.35
2023-01-12T09:25:58.542Z,9.38
2023-01-12T09:28:24.936Z,9.32
2023-01-12T09:30:51.327Z,9.39
2023-01-12T09:33:17.834Z,9.48
2023-01-12T09:35:44.690Z,9.44
2023-01-12T09:38:11.956Z,9.43
2023-01-12T09:40:38.428Z,9.46
2023-01-12T09:43:23.608Z,9.41
2023-01-12T09:46:08.739Z,9.47
2023-01-12T09:48:35.122Z,9.38
2023-01-12T09:51:01.445Z,9.45
2023-01-12T09:53:27.841Z,9.47
2023-01-12T09:55:54.154Z,9.34
2023-01-12T09:58:20.488Z,9.33
2023-01-12T10:00:46.827Z,9.37
2023-01-12T10:03:13.277Z,9.34
2023-01-12T10:05:40.185Z,9.37
2023-01-12T10:08:06.629Z,9.37
2023-01-12T10:10:32.946Z,9.41
2023-01-12T10:13:00.073Z,9.42
2023-01-12T10:15:26.465Z,9.55
2023-01-12T10:17:55.778Z,9.58
2023-01-12T10:20:22.139Z,9.55
2023-01-12T10:22:48.482Z,9.58
2023-01-12T10:25:14.995Z,9.61
2023-01-12T10:27:41.315Z,9.64
2023-01-12T10:30:07.657Z,9.70
2023-01-12T10:32:41.493Z,9.67
2023-01-12T10:35:08.090Z,9.56
2023-01-12T10:37:34.414Z,9.55
2023-01-12T10:40:00.785Z,9.58
2023-01-12T10:42:46.020Z,9.63
2023-01-12T10:45:12.446Z,9.62
2023-01-12T10:47:38.796Z,9.63
2023-01-12T10:50:05.122Z,9.59
2023-01-12T10:52:31.510Z,9.65
2023-01-12T10:54:59.066Z,9.60
2023-01-12T10:57:25.447Z,9.60
2023-01-12T10:59:51.764Z,9.62
2023-01-12T11:02:18.284Z,9.68
2023-01-12T11:04:44.758Z,9.63
2023-01-12T11:07:11.087Z,9.60
2023-01-12T11:09:37.457Z,9.61
2023-01-12T11:12:03.788Z,9.69
2023-01-12T11:14:30.144Z,9.61
2023-01-12T11:16:56.494Z,9.64
2023-01-12T11:19:22.976Z,9.59
2023-01-12T11:21:49.298Z,9.60
2023-01-12T11:24:15.627Z,9.62
2023-01-12T11:26:41.966Z,9.68
2023-01-12T11:29:08.259Z,9.80
2023-01-12T11:31:34.581Z,9.77
2023-01-12T11:34:00.914Z,9.69
2023-01-12T11:36:27.224Z,9.66
2023-01-12T11:38:53.534Z,9.60
2023-01-12T11:41:19.845Z,9.57
2023-01-12T11:43:49.276Z,9.63
2023-01-12T11:46:15.638Z,9.64
2023-01-12T11:48:43.426Z,9.70
2023-01-12T11:51:09.737Z,9.50
2023-01-12T11:53:36.089Z,9.51
2023-01-12T11:56:02.412Z,9.42
2023-01-12T11:58:28.751Z,9.29
2023-01-12T12:00:55.133Z,9.33
2023-01-12T12:03:21.743Z,9.29
2023-01-12T12:05:48.124Z,9.18
2023-01-12T12:08:14.527Z,9.06
2023-01-12T12:10:40.889Z,9.12
2023-01-12T12:13:07.252Z,9.15
2023-01-12T12:15:33.643Z,9.10
2023-01-12T12:17:59.993Z,9.15
2023-01-12T12:20:28.264Z,9.22
2023-01-12T12:22:54.666Z,9.14
2023-01-12T12:25:21.176Z,8.95
2023-01-12T12:27:47.583Z,9.05
2023-01-12T12:30:14.044Z,9.07
2023-01-12T12:32:40.465Z,8.87
2023-01-12T12:35:06.788Z,8.98
2023-01-12T12:37:33.131Z,8.95
2023-01-12T12:39:59.466Z,8.93
2023-01-12T12:42:44.649Z,8.93
2023-01-12T12:45:16.877Z,8.93
2023-01-12T12:47:43.357Z,8.79
2023-01-12T12:50:09.738Z,8.73
2023-01-12T12:52:36.257Z,8.73
2023-01-12T12:55:02.589Z,8.56
2023-01-12T12:57:28.942Z,8.51
2023-01-12T12:59:55.360Z,8.61
2023-01-12T13:02:21.815Z,8.45
2023-01-12T13:04:48.224Z,8.44
2023-01-12T13:07:14.546Z,8.54
2023-01-12T13:09:41.048Z,8.51
2023-01-12T13:12:07.418Z,8.54
2023-01-12T13:14:33.736Z,8.51
2023-01-12T13:17:00.091Z,8.49
2023-01-12T13:19:26.452Z,8.24
2023-01-12T13:21:56.291Z,8.34
2023-01-12T13:24:24.728Z,8.40
2023-01-12T13:26:53.865Z,8.51
2023-01-12T13:29:20.194Z,8.39
2023-01-12T13:31:46.514Z,8.42
2023-01-12T13:34:12.839Z,8.51
2023-01-12T13:36:39.186Z,8.29
2023-01-12T13:39:05.521Z,8.31
2023-01-12T13:41:50.891Z,8.38
2023-01-12T13:44:17.246Z,8.38
2023-01-12T13:46:43.649Z,8.42
2023-01-12T13:49:10.341Z,8.27
2023-01-12T13:51:36.792Z,8.32
2023-01-12T13:54:04.311Z,8.32
2023-01-12T13:56:30.810Z,8.31
2023-01-12T13:58:57.157Z,8.25
2023-01-12T14:01:23.539Z,8.40
2023-01-12T14:03:49.911Z,8.44
2023-01-12T14:06:16.289Z,8.36
2023-01-12T14:08:51.038Z,8.37
2023-01-12T14:11:18.359Z,8.23
2023-01-12T14:13:44.687Z,8.24
2023-01-12T14:16:29.882Z,8.23
2023-01-12T14:18:56.274Z,8.38
2023-01-12T14:21:22.635Z,8.22
2023-01-12T14:23:48.966Z,8.14
2023-01-12T14:26:16.642Z,8.13
2023-01-12T14:28:43.171Z,8.04
2023-01-12T14:31:09.946Z,8.05
2023-01-12T14:33:36.310Z,8.08
2023-01-12T14:36:02.673Z,8.15
2023-01-12T14:38:29.024Z,8.07
2023-01-12T14:40:55.350Z,8.03
2023-01-12T14:43:40.509Z,7.98
2023-01-12T14:46:25.556Z,8.00
2023-01-12T14:48:51.967Z,7.93
2023-01-12T14:51:18.288Z,8.02
2023-01-12T14:53:44.641Z,8.03
2023-01-12T14:56:10.991Z,7.94
2023-01-12T14:58:37.364Z,7.93
2023-01-12T15:01:03.811Z,8.00
2023-01-12T15:03:39.335Z,7.97
2023-01-12T15:06:09.890Z,7.88
2023-01-12T15:08:36.647Z,7.88
2023-01-12T15:11:04.733Z,7.93
2023-01-12T15:13:32.936Z,7.93
2023-01-12T15:16:18.428Z,7.87
2023-01-12T15:19:03.609Z,7.88
2023-01-12T15:21:48.575Z,7.80
2023-01-12T15:24:33.469Z,7.90
2023-01-12T15:27:06.328Z,7.96
2023-01-12T15:29:33.198Z,7.88
2023-01-12T15:31:59.552Z,7.95
2023-01-12T15:34:27.720Z,8.01
2023-01-12T15:36:55.705Z,7.92
2023-01-12T15:39:22.036Z,8.05
2023-01-12T15:42:07.431Z,7.79
2023-01-12T15:44:33.760Z,7.95
2023-01-12T15:47:00.107Z,8.09
2023-01-12T15:49:26.938Z,8.01
2023-01-12T15:51:53.453Z,8.09
2023-01-12T15:54:19.864Z,7.95
2023-01-12T15:56:46.219Z,8.11
2023-01-12T15:59:12.546Z,8.14
2023-01-12T16:01:41.611Z,8.15
2023-01-12T16:04:40.931Z,8.16
2023-01-12T16:06:55.899Z,8.14
2023-01-12T16:09:22.225Z,8.39
2023-01-12T16:11:48.564Z,8.44
2023-01-12T16:14:16.728Z,8.25
2023-01-12T16:16:43.117Z,8.28
2023-01-12T16:19:10.086Z,8.27
2023-01-12T16:21:36.418Z,8.32
2023-01-12T16:24:02.911Z,8.31
2023-01-12T16:26:29.410Z,8.30
2023-01-12T16:28:56.241Z,8.41
2023-01-12T16:31:22.642Z,8.28
2023-01-12T16:33:48.991Z,8.36
2023-01-12T16:36:15.324Z,8.59
2023-01-12T16:38:41.688Z,8.53
2023-01-12T16:41:08.012Z,8.52
2023-01-12T16:43:35.687Z,8.43
2023-01-12T16:46:03.713Z,8.54
2023-01-12T16:48:30.193Z,8.62
2023-01-12T16:50:56.560Z,8.63
2023-01-12T16:53:22.870Z,8.60
2023-01-12T16:55:49.199Z,8.59
2023-01-12T16:58:15.620Z,8.71
2023-01-12T17:00:42.003Z,8.68
2023-01-12T17:03:08.535Z,8.87
2023-01-12T17:05:34.935Z,8.89
2023-01-12T17:08:01.268Z,8.92
2023-01-12T17:10:27.743Z,8.83
2023-01-12T17:12:59.175Z,9.04
2023-01-12T17:15:28.767Z,9.02
2023-01-12T17:17:55.774Z,9.02
2023-01-12T17:20:22.469Z,8.89
2023-01-12T17:22:49.117Z,9.26
2023-01-12T17:25:15.998Z,9.18
2023-01-12T17:27:42.352Z,9.14
2023-01-12T17:30:08.669Z,9.16
2023-01-12T17:32:35.148Z,9.21
2023-01-12T17:35:04.407Z,9.22
2023-01-12T17:37:30.744Z,9.14
2023-01-12T17:39:57.107Z,9.16
2023-01-12T17:42:42.582Z,9.20
2023-01-12T17:45:08.905Z,9.10
2023-01-12T17:47:35.209Z,9.18
2023-01-12T17:50:01.551Z,9.12
2023-01-12T17:52:27.919Z,9.26
2023-01-12T17:54:54.442Z,9.48
2023-01-12T17:57:20.845Z,9.51
2023-01-12T17:59:47.284Z,9.88
2023-01-12T18:02:15.244Z,9.89
2023-01-12T18:04:41.677Z,10.03
2023-01-12T18:07:08.013Z,9.88
2023-01-12T18:09:34.411Z,9.99
2023-01-12T18:12:02.681Z,9.91
2023-01-12T18:14:29.009Z,9.90
2023-01-12T18:16:55.363Z,9.97
2023-01-12T18:19:21.724Z,10.14
2023-01-12T18:21:48.077Z,10.18
2023-01-12T18:24:14.447Z,10.02
2023-01-12T18:26:40.788Z,9.98
2023-01-12T18:29:07.272Z,10.09
2023-01-12T18:31:37.238Z,9.98
2023-01-12T18:34:06.141Z,10.01
2023-01-12T18:36:32.475Z,10.09
2023-01-12T18:38:58.818Z,10.03
2023-01-12T18:41:43.983Z,10.09
2023-01-12T18:44:10.292Z,10.00
2023-01-12T18:46:55.347Z,9.86
2023-01-12T18:49:21.658Z,9.92
2023-01-12T18:52:06.807Z,9.86
2023-01-12T18:54:33.891Z,9.89
2023-01-12T18:57:00.236Z,9.91
2023-01-12T18:59:29.032Z,10.01
2023-01-12T19:01:55.631Z,9.86
2023-01-12T19:04:35.371Z,9.94
2023-01-12T19:07:01.986Z,10.03
2023-01-12T19:09:38.549Z,9.87
2023-01-12T19:12:04.965Z,9.87
2023-01-12T19:14:50.309Z,10.04
2023-01-12T19:17:30.172Z,9.76
2023-01-12T19:19:56.585Z,9.84
2023-01-12T19:22:41.850Z,9.96
2023-01-12T19:25:26.929Z,9.84
2023-01-12T19:28:11.921Z,9.98
2023-01-12T19:30:38.737Z,9.92
2023-01-12T19:33:08.485Z,9.93
2023-01-12T19:35:34.918Z,10.05
2023-01-12T19:38:01.260Z,10.00
2023-01-12T19:40:34.464Z,10.04
2023-01-12T19:43:14.553Z,10.02
2023-01-12T19:45:40.915Z,10.14
2023-01-12T19:48:07.728Z,10.13
2023-01-12T19:50:34.083Z,10.22
2023-01-12T19:53:00.487Z,10.20
2023-01-12T19:55:26.953Z,10.10
2023-01-12T19:57:54.534Z,10.19
2023-01-12T20:00:20.989Z,10.03
2023-01-12T20:02:47.426Z,10.11
2023-01-12T20:05:22.028Z,10.15
2023-01-12T20:07:48.586Z,10.13
2023-01-12T20:10:14.916Z,10.19
2023-01-12T20:12:41.381Z,10.19
2023-01-12T20:15:07.785Z,10.19
2023-01-12T20:17:34.117Z,10.10
2023-01-12T20:20:00.447Z,10.20
2023-01-12T20:22:26.825Z,10.23
2023-01-12T20:24:53.156Z,10.13
2023-01-12T20:27:19.549Z,10.10
2023-01-12T20:29:45.865Z,10.04
2023-01-12T20:32:12.202Z,10.01
2023-01-12T20:34:38.548Z,10.03
2023-01-12T20:37:04.853Z,10.10
2023-01-12T20:39:31.185Z,10.18
2023-01-12T20:41:57.581Z,10.20
2023-01-12T20:44:23.941Z,10.28
2023-01-12T20:46:50.420Z,10.34
2023-01-12T20:49:16.783Z,10.30
2023-01-12T20:51:43.129Z,10.25
2023-01-12T20:54:09.453Z,10.28
2023-01-12T20:56:35.801Z,10.31
2023-01-12T20:59:02.619Z,10.35
2023-01-12T21:01:29.143Z,10.34
2023-01-12T21:03:55.581Z,10.32
2023-01-12T21:06:22.305Z,10.34
2023-01-12T21:08:48.634Z,10.37
2023-01-12T21:11:14.998Z,10.42
2023-01-12T21:13:41.509Z,10.35
2023-01-12T21:16:07.997Z,10.34
2023-01-12T21:18:34.335Z,10.26
2023-01-12T21:21:02.634Z,10.37
2023-01-12T21:23:28.986Z,10.37
2023-01-12T21:25:55.734Z,10.30
2023-01-12T21:28:22.134Z,10.35
2023-01-12T21:30:48.482Z,10.37
2023-01-12T21:33:14.815Z,10.38
2023-01-12T21:35:41.184Z,10.45
2023-01-12T21:38:07.605Z,10.45
2023-01-12T21:40:33.925Z,10.46
2023-01-12T21:43:09.614Z,10.46
2023-01-12T21:45:36.033Z,10.48
2023-01-12T21:48:02.363Z,10.51
2023-01-12T21:50:28.691Z,10.43
2023-01-12T21:52:55.003Z,10.50
2023-01-12T21:55:21.421Z,10.48
2023-01-12T21:57:47.989Z,10.45
2023-01-12T22:00:14.360Z,10.42
2023-01-12T22:02:41.646Z,10.48
2023-01-12T22:05:08.019Z,10.44
2023-01-12T22:07:34.325Z,10.52
2023-01-12T22:10:19.114Z,10.50
2023-01-12T22:12:45.512Z,10.52
2023-01-12T22:15:11.811Z,10.58
2023-01-12T22:17:38.313Z,10.55
2023-01-12T22:20:04.646Z,10.51
2023-01-12T22:22:31.052Z,10.52
2023-01-12T22:24:57.379Z,10.56
2023-01-12T22:27:26.513Z,10.52
2023-01-12T22:29:53.023Z,10.57
2023-01-12T22:32:19.325Z,10.53
2023-01-12T22:34:45.662Z,10.63
2023-01-12T22:37:12.789Z,10.61
2023-01-12T22:39:39.181Z,10.65
2023-01-12T22:42:05.510Z,10.67
2023-01-12T22:44:32.373Z,10.67
2023-01-12T22:46:58.708Z,10.62
2023-01-12T22:49:25.016Z,10.58
2023-01-12T22:51:51.335Z,10.58
2023-01-12T22:54:17.700Z,10.57
2023-01-12T22:56:46.059Z,10.56
2023-01-12T22:59:12.440Z,10.58
2023-01-12T23:01:38.942Z,10.56
2023-01-12T23:04:05.776Z,10.54
2023-01-12T23:06:32.272Z,10.50
2023-01-12T23:08:58.779Z,10.56
2023-01-12T23:11:25.307Z,10.59
2023-01-12T23:13:51.783Z,10.51
2023-01-12T23:16:18.361Z,10.49
2023-01-12T23:18:44.861Z,10.46
2023-01-12T23:21:14.309Z,10.57
2023-01-12T23:23:40.810Z,10.54
2023-01-12T23:26:08.779Z,10.51
2023-01-12T23:28:41.670Z,10.60
2023-01-12T23:31:08.819Z,10.56
2023-01-12T23:33:35.368Z,10.59
2023-01-12T23:36:01.962Z,10.58
2023-01-12T23:38:28.429Z,10.54
2023-01-12T23:40:54.929Z,10.54
2023-01-12T23:43:21.464Z,10.54
2023-01-12T23:45:47.952Z,10.52
2023-01-12T23:48:14.711Z,10.62
2023-01-12T23:50:41.178Z,10.60
2023-01-12T23:53:07.675Z,10.55
2023-01-12T23:55:34.157Z,10.59
2023-01-12T23:58:00.744Z,10.61
